»·PEaware :: N425JA KSMX-KSBA

N425JA :: KSMX-KSBA

FLIGHT INFORMATION

Flight Status: Arrived
Operator: Privately registered:
United States
More flights under this callsign
Pilot: Marcelo S. (23897)
Aircraft: PIPER PA-46-310/350P MALIBU MIRAGE
(PA46)
More flights by this aircraft type
Origin: KSMX Santa Maria Pub/Capt Hancock
United States
Destination: KSBA Santa Barbara Mun
United States
More flights between these airports :: More routes between these airports
Route: +GVO
File this flight plan on PilotEdge
Remarks: Flying ODP
Altitude:
(Current/Filed)
7,000ft
Speed:
(Current/Filed)
180kts
Departed: 20-Apr-19 11:47 AM
Arrived: 20-Apr-19 12:43 PM
Distance/Time
Traveled:
42nm/0:56
Distance/Time
To Go:
Arrived

Flight Plot

Page will automatically refresh every two minutes.


Map Options




Map Legend


Flown Route
Filed Route
Departure Airport
Arrival Airport
Navaid (VOR, NDB)
Fix

Horizontal Profiles

Position Reports

Time Latitude Longitude Heading Altitude Ground
Speed
20-Apr-19 11:35 34.900841 -120.451786 49 265ft 0kts
20-Apr-19 11:36 34.900697 -120.451577 201 265ft 0kts
20-Apr-19 11:37 34.900697 -120.451577 201 265ft 0kts
20-Apr-19 11:38 34.900697 -120.451577 201 265ft 0kts
20-Apr-19 11:39 34.900697 -120.451577 201 265ft 0kts
20-Apr-19 11:40 34.900697 -120.451577 201 265ft 0kts
20-Apr-19 11:41 34.900697 -120.451577 201 265ft 0kts
20-Apr-19 11:42 34.900697 -120.451577 201 265ft 0kts
20-Apr-19 11:43 34.899986 -120.451487 147 265ft 11kts
20-Apr-19 11:44 34.894585 -120.445876 148 265ft 20kts
20-Apr-19 11:45 34.893596 -120.445723 178 265ft 9kts
20-Apr-19 11:46 34.899413 -120.453677 314 265ft 94kts
20-Apr-19 11:47 34.922793 -120.462413 53 1294ft 116kts
20-Apr-19 11:48 34.915002 -120.427199 112 2945ft 95kts
20-Apr-19 11:49 34.901163 -120.392506 113 3955ft 136kts
20-Apr-19 11:50 34.883175 -120.345134 113 4654ft 167kts
20-Apr-19 11:51 34.863047 -120.291481 113 5311ft 178kts
20-Apr-19 11:52 34.842004 -120.236348 122 5953ft 182kts
20-Apr-19 11:53 34.794988 -120.218490 164 6633ft 181kts
20-Apr-19 11:54 34.746428 -120.196240 158 7001ft 196kts
20-Apr-19 11:55 34.694257 -120.170641 159 7000ft 206kts
20-Apr-19 11:56 34.640812 -120.144329 160 7000ft 207kts
20-Apr-19 11:57 34.587427 -120.118381 160 6998ft 205kts
20-Apr-19 11:58 34.535271 -120.090888 142 6969ft 205kts
20-Apr-19 11:59 34.507323 -120.027804 115 6288ft 218kts
20-Apr-19 12:00 34.479375 -119.964162 124 5979ft 205kts
20-Apr-19 12:01 34.456483 -119.901552 110 5911ft 201kts
20-Apr-19 12:02 34.435757 -119.842242 126 6412ft 174kts
20-Apr-19 12:03 34.414910 -119.788425 114 6587ft 202kts
20-Apr-19 12:04 34.390146 -119.723274 115 5897ft 218kts
20-Apr-19 12:05 34.363996 -119.656912 125 5193ft 217kts
20-Apr-19 12:06 34.313074 -119.625459 160 4516ft 203kts
20-Apr-19 12:07 34.292396 -119.575291 52 3837ft 197kts
20-Apr-19 12:08 34.335333 -119.584376 303 3223ft 182kts
20-Apr-19 12:09 34.358137 -119.639378 294 2506ft 184kts
20-Apr-19 12:10 34.377575 -119.693423 285 2141ft 163kts
20-Apr-19 12:11 34.397665 -119.744801 302 1327ft 171kts
20-Apr-19 12:12 34.414096 -119.787216 287 821ft 119kts
20-Apr-19 12:13 34.427009 -119.820577 289 865ft 102kts
20-Apr-19 12:14 34.420488 -119.852570 207 1638ft 127kts
20-Apr-19 12:15 34.397134 -119.895033 264 1565ft 183kts
20-Apr-19 12:16 34.364415 -119.932285 174 2228ft 170kts
20-Apr-19 12:17 34.323957 -119.903314 144 2931ft 171kts
20-Apr-19 12:18 34.285804 -119.868136 138 3591ft 173kts
20-Apr-19 12:19 34.268731 -119.812082 109 3983ft 189kts
20-Apr-19 12:20 34.232231 -119.814136 265 3993ft 186kts
20-Apr-19 12:21 34.268085 -119.852976 323 3987ft 175kts
20-Apr-19 12:22 34.307136 -119.854651 70 3982ft 170kts
20-Apr-19 12:23 34.279870 -119.816004 150 3984ft 164kts
20-Apr-19 12:24 34.241655 -119.810710 245 3988ft 154kts
20-Apr-19 12:25 34.265370 -119.849411 319 3985ft 158kts
20-Apr-19 12:26 34.302883 -119.860395 57 3991ft 164kts
20-Apr-19 12:27 34.281501 -119.821560 147 3998ft 154kts
20-Apr-19 12:28 34.243438 -119.811902 236 4049ft 169kts
20-Apr-19 12:29 34.269415 -119.854791 316 4003ft 187kts
20-Apr-19 12:30 34.277092 -119.913119 265 4005ft 185kts
20-Apr-19 12:31 34.272301 -119.975412 264 4000ft 186kts
20-Apr-19 12:32 34.267209 -120.037540 265 4014ft 185kts
20-Apr-19 12:33 34.292468 -120.085524 348 3452ft 190kts
20-Apr-19 12:34 34.344477 -120.086986 357 2886ft 185kts
20-Apr-19 12:35 34.393667 -120.088250 356 2816ft 168kts
20-Apr-19 12:36 34.422989 -120.058002 90 2274ft 157kts
20-Apr-19 12:37 34.424314 -120.006148 89 1827ft 142kts
20-Apr-19 12:38 34.425001 -119.962395 91 1789ft 124kts
20-Apr-19 12:39 34.426126 -119.917671 93 1334ft 131kts
20-Apr-19 12:40 34.426861 -119.874835 86 354ft 103kts
20-Apr-19 12:41 34.427560 -119.845510 89 14ft 60kts
20-Apr-19 12:42 34.427218 -119.837656 153 14ft 0kts
20-Apr-19 12:43 34.425987 -119.837977 163 14ft 17kts

Navigation Log

Ident Type
Flight plan parsing failed, navigation log unavailable